Anchorage/Lake Hood Seaplane Base, Alaska
Current Conditions -  °F | °C
As of 8:53 AM on Friday 21 Nov 2014 (Local Time) from PALH Reporting Station
Few Clouds Few Clouds  
Wind Chill: 35°   Ceiling: Unl
Heat Index: 35°   Visibility: 10mi
Dew Point: 22°   Wind: 0mph
Humidity: 59%   Direction: NA
Pressure: 28.97"   Gusts: NA
Location:  61.18°N, 149.97°W
Report Text: PALH 211753Z 00000KT 10SM FEW120 02/M06 A2897 RMK AO2 SLP812 T00171056 10028 20006 56017
Loading
Personal Weather Stations






























Interactive Weather Map New forecast layout! Learn more

10-Day Weather Forecast

Advertisements
Track Severe Weather on mobile